Terminal Aerodrome Forecast
Issued by NWS

Home | Current Version | Previous Version | Text Only | Print | Product List | Glossary On
Versions: 1 2 3 4 5 6 7 8 9 10 11 12 13 14 15 16 17 18 19 20
000
FTUS41 KBTV 232300
TAFSLK
TAF
KSLK 232324Z 2400/2424 VRB04KT P6SM SCT030 OVC040
      TEMPO 2400/2403 4SM BR SCT015 OVC025
     FM240300 35005KT P6SM SCT025 BKN050
     FM241400 34010KT P6SM SCT060=

USA.gov is the U.S. government's official web portal to all federal, state and local government web resources and services.